Time;durP1;ratioP1;P1;durP2;ratioP2;P2;SDS_P1;SDS_P2;PMS_P1;PMS_P2;Temp;Humidity;BMP_temperature;BMP_pressure;BME280_temperature;BME280_humidity;BME280_pressure;Samples;Min_cycle;Max_cycle;Signal;HPM_P1;HPM_P2
2021/05/12 00:00:54;;;;;;;50.17;36.03;;;;;;;;;;5053537;28;20407;-54
2021/05/12 00:03:20;;;;;;;47.50;34.73;;;;;;;;;;5053013;28;20449;-54
2021/05/12 00:05:46;;;;;;;47.37;34.70;;;;;;;;;;5053011;28;20440;-54
2021/05/12 00:08:12;;;;;;;45.10;34.43;;;;;;;;;;5053043;28;20450;-54
2021/05/12 00:10:38;;;;;;;43.57;32.90;;;;;;;;;;5052891;28;20415;-54
2021/05/12 00:13:04;;;;;;;47.97;35.47;;;;;;;;;;5052771;28;20408;-55
2021/05/12 00:15:30;;;;;;;50.27;33.47;;;;;;;;;;5052772;28;20775;-54
2021/05/12 00:17:56;;;;;;;44.83;32.90;;;;;;;;;;5052938;28;20432;-54
2021/05/12 00:20:29;;;;;;;46.83;34.33;;;;;;;;;;5052813;28;20777;-54
2021/05/12 00:23:00;;;;;;;47.80;32.63;;;;;;;;;;5052693;28;20799;-54
2021/05/12 00:25:26;;;;;;;45.97;35.00;;;;;;;;;;5052673;28;20408;-54
2021/05/12 00:27:52;;;;;;;43.80;32.37;;;;;;;;;;5052706;28;20423;-54
2021/05/12 00:30:20;;;;;;;42.40;32.13;;;;;;;;;;5052594;28;20412;-54
2021/05/12 00:32:46;;;;;;;44.77;31.87;;;;;;;;;;5052418;28;20918;-54
2021/05/12 00:35:12;;;;;;;46.17;32.70;;;;;;;;;;5052648;28;20454;-54
2021/05/12 00:37:38;;;;;;;45.50;31.90;;;;;;;;;;5052444;28;20508;-54
2021/05/12 00:40:05;;;;;;;46.63;32.40;;;;;;;;;;5052399;28;20413;-54
2021/05/12 00:42:32;;;;;;;48.90;32.50;;;;;;;;;;5051962;28;20470;-54
2021/05/12 00:44:58;;;;;;;47.93;33.87;;;;;;;;;;5052476;28;20443;-54
2021/05/12 00:47:28;;;;;;;56.40;35.70;;;;;;;;;;5052146;28;20444;-54
2021/05/12 00:49:55;;;;;;;44.00;33.60;;;;;;;;;;5052657;28;20407;-54
2021/05/12 00:52:21;;;;;;;46.60;32.97;;;;;;;;;;5051764;28;20401;-54
2021/05/12 00:54:47;;;;;;;49.30;33.87;;;;;;;;;;5052595;28;20405;-54
2021/05/12 00:57:13;;;;;;;45.63;33.87;;;;;;;;;;5052013;28;20931;-54
2021/05/12 00:59:40;;;;;;;47.60;34.80;;;;;;;;;;5052591;28;20816;-54
2021/05/12 01:02:07;;;;;;;52.10;35.83;;;;;;;;;;5051290;28;20445;-54
2021/05/12 01:04:33;;;;;;;42.77;31.97;;;;;;;;;;5051340;28;20774;-54
2021/05/12 01:06:59;;;;;;;43.27;33.33;;;;;;;;;;5051239;28;20420;-54
2021/05/12 01:09:25;;;;;;;47.17;34.73;;;;;;;;;;5051493;28;20400;-54
2021/05/12 01:11:51;;;;;;;50.43;33.47;;;;;;;;;;5051466;28;20403;-54
2021/05/12 01:14:17;;;;;;;45.57;34.47;;;;;;;;;;5051777;28;20401;-54
2021/05/12 01:16:43;;;;;;;43.20;33.47;;;;;;;;;;5051740;28;20429;-54
2021/05/12 01:19:10;;;;;;;48.53;36.13;;;;;;;;;;5051634;28;20405;-54
2021/05/12 01:21:36;;;;;;;52.20;35.40;;;;;;;;;;5051494;28;20407;-54
2021/05/12 01:24:02;;;;;;;54.97;35.53;;;;;;;;;;5050238;28;20452;-54
2021/05/12 01:26:28;;;;;;;54.67;39.30;;;;;;;;;;5051575;28;20987;-54
2021/05/12 01:28:55;;;;;;;55.13;35.77;;;;;;;;;;5051504;28;20491;-54
2021/05/12 01:31:23;;;;;;;46.33;34.30;;;;;;;;;;5051425;28;20404;-54
2021/05/12 01:33:50;;;;;;;55.63;36.80;;;;;;;;;;5051248;28;20419;-54
2021/05/12 01:36:17;;;;;;;46.23;34.33;;;;;;;;;;5051848;28;20427;-54
2021/05/12 01:38:44;;;;;;;50.37;35.30;;;;;;;;;;5051261;28;20434;-54
2021/05/12 01:41:10;;;;;;;51.60;34.73;;;;;;;;;;5051388;28;20780;-54
2021/05/12 01:43:36;;;;;;;55.73;35.53;;;;;;;;;;5050771;28;20446;-54
2021/05/12 01:46:03;;;;;;;49.43;36.30;;;;;;;;;;5051139;28;20409;-54
2021/05/12 01:48:29;;;;;;;49.53;36.50;;;;;;;;;;5051389;28;20447;-54
2021/05/12 01:50:55;;;;;;;59.43;37.60;;;;;;;;;;5051591;28;20491;-54
2021/05/12 01:53:22;;;;;;;54.73;38.80;;;;;;;;;;5051046;28;20906;-54
2021/05/12 01:55:48;;;;;;;54.50;37.40;;;;;;;;;;5051349;28;20372;-54
2021/05/12 01:58:15;;;;;;;59.70;37.40;;;;;;;;;;5051235;28;20489;-54
2021/05/12 02:00:43;;;;;;;58.43;38.87;;;;;;;;;;5051077;28;20402;-54
2021/05/12 02:03:09;;;;;;;57.00;38.27;;;;;;;;;;5050439;28;20451;-54
2021/05/12 02:05:36;;;;;;;58.53;38.13;;;;;;;;;;5050338;28;20863;-54
2021/05/12 02:08:03;;;;;;;62.17;40.90;;;;;;;;;;5050876;28;20407;-54
2021/05/12 02:10:29;;;;;;;53.40;38.57;;;;;;;;;;5050750;28;20913;-54
2021/05/12 02:12:56;;;;;;;67.50;41.50;;;;;;;;;;5050627;28;20926;-54
2021/05/12 02:15:22;;;;;;;58.30;38.97;;;;;;;;;;5050630;28;20487;-53
2021/05/12 02:17:48;;;;;;;53.83;39.57;;;;;;;;;;5051179;28;20699;-54
2021/05/12 02:20:16;;;;;;;55.30;40.47;;;;;;;;;;5050622;28;20870;-54
2021/05/12 02:22:42;;;;;;;54.97;38.20;;;;;;;;;;5050389;28;20498;-54
2021/05/12 02:25:08;;;;;;;49.20;37.73;;;;;;;;;;5050542;28;20431;-53
2021/05/12 02:27:35;;;;;;;65.80;39.37;;;;;;;;;;5050644;28;20432;-54
2021/05/12 02:30:01;;;;;;;54.70;39.10;;;;;;;;;;5050535;28;20438;-54
2021/05/12 02:32:28;;;;;;;63.93;38.63;;;;;;;;;;5050233;28;20411;-54
2021/05/12 02:34:55;;;;;;;57.67;40.77;;;;;;;;;;5050520;28;20465;-54
2021/05/12 02:37:21;;;;;;;68.97;40.00;;;;;;;;;;5050552;28;20462;-54
2021/05/12 02:39:47;;;;;;;63.17;39.70;;;;;;;;;;5050503;28;20407;-54
2021/05/12 02:42:13;;;;;;;51.73;38.57;;;;;;;;;;5050185;28;20817;-53
2021/05/12 02:44:39;;;;;;;58.33;40.67;;;;;;;;;;5050474;28;20395;-54
2021/05/12 02:47:05;;;;;;;55.27;40.00;;;;;;;;;;5049944;28;20433;-54
2021/05/12 02:49:31;;;;;;;53.07;39.43;;;;;;;;;;5050450;28;20402;-54
2021/05/12 02:51:56;;;;;;;51.03;37.00;;;;;;;;;;5050096;28;20399;-53
2021/05/12 02:54:23;;;;;;;59.80;38.43;;;;;;;;;;5049075;28;20498;-54
2021/05/12 02:56:49;;;;;;;53.50;38.33;;;;;;;;;;5050255;28;20431;-54
2021/05/12 02:59:15;;;;;;;60.70;40.20;;;;;;;;;;5050305;28;20943;-54
2021/05/12 03:01:40;;;;;;;59.33;40.50;;;;;;;;;;5049890;28;20400;-54
2021/05/12 03:04:07;;;;;;;59.97;39.50;;;;;;;;;;5050053;28;20511;-54
2021/05/12 03:06:33;;;;;;;57.50;38.10;;;;;;;;;;5048747;28;20454;-54
2021/05/12 03:08:59;;;;;;;57.87;39.90;;;;;;;;;;5050284;28;20403;-54
2021/05/12 03:11:25;;;;;;;60.10;36.13;;;;;;;;;;5049929;28;20429;-54
2021/05/12 03:13:51;;;;;;;52.80;34.57;;;;;;;;;;5050270;28;20711;-54
2021/05/12 03:16:17;;;;;;;49.17;32.70;;;;;;;;;;5049815;28;20918;-53
2021/05/12 03:18:43;;;;;;;50.93;34.97;;;;;;;;;;5053385;28;20497;-53
2021/05/12 03:21:09;;;;;;;48.07;34.23;;;;;;;;;;5054061;28;20459;-54
2021/05/12 03:23:35;;;;;;;48.63;36.17;;;;;;;;;;5053683;28;20859;-54
2021/05/12 03:26:01;;;;;;;52.73;36.47;;;;;;;;;;5053943;28;20864;-54
2021/05/12 03:28:27;;;;;;;50.60;35.07;;;;;;;;;;5053721;28;20400;-54
2021/05/12 03:30:53;;;;;;;52.37;33.57;;;;;;;;;;5053747;28;20394;-54
2021/05/12 03:33:19;;;;;;;51.07;36.43;;;;;;;;;;5053415;28;20406;-54
2021/05/12 03:35:45;;;;;;;49.03;35.13;;;;;;;;;;5054005;28;20405;-54
2021/05/12 03:38:12;;;;;;;57.57;37.43;;;;;;;;;;5053562;28;20804;-54
2021/05/12 03:40:39;;;;;;;57.03;35.77;;;;;;;;;;5053686;28;20406;-54
2021/05/12 03:43:05;;;;;;;49.20;34.27;;;;;;;;;;5053140;28;20444;-54
2021/05/12 03:45:32;;;;;;;57.10;36.57;;;;;;;;;;5053506;28;20540;-54
2021/05/12 03:47:58;;;;;;;54.13;34.97;;;;;;;;;;5053382;28;20440;-54
2021/05/12 03:50:26;;;;;;;47.90;34.30;;;;;;;;;;5053524;28;20764;-54
2021/05/12 03:52:52;;;;;;;49.00;35.90;;;;;;;;;;5053164;28;20417;-54
2021/05/12 03:55:18;;;;;;;54.93;35.63;;;;;;;;;;5053611;28;20906;-54
2021/05/12 03:57:44;;;;;;;48.70;33.50;;;;;;;;;;5053295;28;20837;-54
2021/05/12 04:00:10;;;;;;;51.63;35.17;;;;;;;;;;5053561;28;20906;-54
2021/05/12 04:02:36;;;;;;;49.47;35.73;;;;;;;;;;5053174;28;20449;-54
2021/05/12 04:05:03;;;;;;;48.90;34.10;;;;;;;;;;5053766;28;20809;-54
2021/05/12 04:07:29;;;;;;;52.13;35.73;;;;;;;;;;5053186;28;20475;-54
2021/05/12 04:09:55;;;;;;;50.53;33.30;;;;;;;;;;5053202;28;20393;-54
2021/05/12 04:12:21;;;;;;;51.47;34.80;;;;;;;;;;5052845;28;20406;-54
2021/05/12 04:14:47;;;;;;;52.47;33.10;;;;;;;;;;5053611;28;20409;-52
2021/05/12 04:17:13;;;;;;;50.90;33.87;;;;;;;;;;5053073;28;20421;-53
2021/05/12 04:19:39;;;;;;;47.83;33.80;;;;;;;;;;5052859;28;20401;-53
2021/05/12 04:22:05;;;;;;;48.80;33.63;;;;;;;;;;5052680;28;20769;-52
2021/05/12 04:24:31;;;;;;;46.60;31.50;;;;;;;;;;5052718;28;20401;-53
2021/05/12 04:26:57;;;;;;;51.87;32.20;;;;;;;;;;5052684;28;20421;-53
2021/05/12 04:29:24;;;;;;;44.30;32.60;;;;;;;;;;5052344;28;20403;-53
2021/05/12 04:31:50;;;;;;;46.40;32.37;;;;;;;;;;5052570;28;20904;-54
2021/05/12 04:34:16;;;;;;;45.67;31.60;;;;;;;;;;5052444;28;20397;-52
2021/05/12 04:36:41;;;;;;;46.97;31.27;;;;;;;;;;5052671;28;20901;-52
2021/05/12 04:39:08;;;;;;;48.80;29.70;;;;;;;;;;5052467;28;20408;-52
2021/05/12 04:41:34;;;;;;;43.13;31.10;;;;;;;;;;5052254;28;20495;-52
2021/05/12 04:44:00;;;;;;;51.93;31.37;;;;;;;;;;5052171;28;20536;-54
2021/05/12 04:46:26;;;;;;;43.70;30.40;;;;;;;;;;5052289;28;20906;-53
2021/05/12 04:48:55;;;;;;;43.37;30.30;;;;;;;;;;5052422;28;20442;-53
2021/05/12 04:51:21;;;;;;;46.53;29.83;;;;;;;;;;5052151;28;20406;-53
2021/05/12 04:53:47;;;;;;;50.03;31.40;;;;;;;;;;5050861;28;20421;-54
2021/05/12 04:56:14;;;;;;;41.93;29.67;;;;;;;;;;5051927;28;20483;-53
2021/05/12 04:58:40;;;;;;;44.57;30.77;;;;;;;;;;5052424;28;20398;-53
2021/05/12 05:01:06;;;;;;;39.23;29.10;;;;;;;;;;5052077;28;20825;-53
2021/05/12 05:03:34;;;;;;;49.77;30.17;;;;;;;;;;5051809;28;20529;-53
2021/05/12 05:06:00;;;;;;;39.80;29.87;;;;;;;;;;5051924;28;20405;-53
2021/05/12 05:08:26;;;;;;;45.03;30.97;;;;;;;;;;5052101;28;20504;-53
2021/05/12 05:10:52;;;;;;;45.90;31.63;;;;;;;;;;5051681;28;20458;-53
2021/05/12 05:13:18;;;;;;;48.30;31.07;;;;;;;;;;5051648;28;20498;-53
2021/05/12 05:15:45;;;;;;;43.93;29.73;;;;;;;;;;5051678;28;20406;-54
2021/05/12 05:18:12;;;;;;;42.97;28.77;;;;;;;;;;5051850;28;20429;-53
2021/05/12 05:20:38;;;;;;;47.87;30.43;;;;;;;;;;5051638;28;20413;-53
2021/05/12 05:23:07;;;;;;;41.73;27.80;;;;;;;;;;5051576;28;20446;-53
2021/05/12 05:25:33;;;;;;;52.47;30.00;;;;;;;;;;5051803;28;20475;-53
2021/05/12 05:27:59;;;;;;;49.60;29.47;;;;;;;;;;5051584;28;20469;-54
2021/05/12 05:30:25;;;;;;;44.17;30.97;;;;;;;;;;5051455;28;20405;-53
2021/05/12 05:32:51;;;;;;;47.53;30.43;;;;;;;;;;5051368;28;20488;-54
2021/05/12 05:35:17;;;;;;;40.13;27.73;;;;;;;;;;5051478;28;20402;-53
2021/05/12 05:37:43;;;;;;;38.10;28.30;;;;;;;;;;5051788;28;20417;-53
2021/05/12 05:40:10;;;;;;;41.63;27.00;;;;;;;;;;5050718;28;20406;-53
2021/05/12 05:42:36;;;;;;;42.47;28.33;;;;;;;;;;5051208;28;20967;-53
2021/05/12 05:45:02;;;;;;;45.93;30.17;;;;;;;;;;5051296;28;20416;-52
2021/05/12 05:47:28;;;;;;;40.70;29.20;;;;;;;;;;5051100;28;20439;-53
2021/05/12 05:49:54;;;;;;;34.83;26.20;;;;;;;;;;5051297;28;20484;-53
2021/05/12 05:52:20;;;;;;;33.53;26.10;;;;;;;;;;5050827;28;20497;-53
2021/05/12 05:54:46;;;;;;;40.80;25.90;;;;;;;;;;5051413;28;20408;-53
2021/05/12 05:57:15;;;;;;;33.70;26.03;;;;;;;;;;5051121;28;20430;-55
2021/05/12 05:59:42;;;;;;;38.93;26.60;;;;;;;;;;5051298;28;20401;-53
2021/05/12 06:02:08;;;;;;;37.90;27.93;;;;;;;;;;5050807;28;20424;-52
2021/05/12 06:04:34;;;;;;;36.63;24.27;;;;;;;;;;5051054;28;20826;-54
2021/05/12 06:07:00;;;;;;;27.93;22.77;;;;;;;;;;5050801;28;20507;-55
2021/05/12 06:09:26;;;;;;;39.40;25.60;;;;;;;;;;5050988;28;20476;-53
2021/05/12 06:11:53;;;;;;;31.23;23.60;;;;;;;;;;5050640;28;20886;-54
2021/05/12 06:14:19;;;;;;;31.60;22.87;;;;;;;;;;5050968;28;20973;-53
2021/05/12 06:16:46;;;;;;;30.33;24.97;;;;;;;;;;5050762;28;20443;-53
2021/05/12 06:19:12;;;;;;;36.90;23.80;;;;;;;;;;5050705;28;20919;-52
2021/05/12 06:21:38;;;;;;;34.00;23.67;;;;;;;;;;5050502;28;20411;-53
2021/05/12 06:24:04;;;;;;;30.27;22.83;;;;;;;;;;5050505;28;20825;-53
2021/05/12 06:26:30;;;;;;;35.87;22.90;;;;;;;;;;5050601;28;20495;-52
2021/05/12 06:28:56;;;;;;;28.30;21.83;;;;;;;;;;5050570;28;20428;-53
2021/05/12 06:31:22;;;;;;;35.43;23.20;;;;;;;;;;5049313;28;20940;-52
2021/05/12 06:33:48;;;;;;;29.93;19.87;;;;;;;;;;5050748;28;20473;-53
2021/05/12 06:36:17;;;;;;;30.90;21.57;;;;;;;;;;5050390;28;20417;-53
2021/05/12 06:38:43;;;;;;;30.47;21.20;;;;;;;;;;5050441;28;20408;-53
2021/05/12 06:41:10;;;;;;;30.23;19.90;;;;;;;;;;5050557;28;20765;-53
2021/05/12 06:43:36;;;;;;;28.57;18.90;;;;;;;;;;5050067;28;20793;-53
2021/05/12 06:46:02;;;;;;;31.87;18.53;;;;;;;;;;5050367;28;20372;-53
2021/05/12 06:48:28;;;;;;;25.57;17.63;;;;;;;;;;5050418;28;20918;-54
2021/05/12 06:50:54;;;;;;;24.73;18.13;;;;;;;;;;5050578;28;20403;-52
2021/05/12 06:53:27;;;;;;;24.00;17.13;;;;;;;;;;5054207;28;20487;-53
2021/05/12 06:55:53;;;;;;;25.53;17.07;;;;;;;;;;5054493;28;20770;-53
2021/05/12 06:58:19;;;;;;;23.60;15.97;;;;;;;;;;5053999;28;20910;-52
2021/05/12 07:00:45;;;;;;;20.37;16.00;;;;;;;;;;5053759;28;20397;-53
2021/05/12 07:03:11;;;;;;;25.77;15.57;;;;;;;;;;5054091;28;20439;-53
2021/05/12 07:05:37;;;;;;;19.67;15.83;;;;;;;;;;5054342;28;20771;-55
2021/05/12 07:08:03;;;;;;;23.77;15.07;;;;;;;;;;5054351;28;20887;-53
2021/05/12 07:10:29;;;;;;;23.70;15.03;;;;;;;;;;5054116;28;20888;-53
2021/05/12 07:12:55;;;;;;;24.30;13.80;;;;;;;;;;5054001;28;20415;-52
2021/05/12 07:15:21;;;;;;;18.20;11.50;;;;;;;;;;5054044;28;20429;-52
2021/05/12 07:17:49;;;;;;;18.90;12.43;;;;;;;;;;5053990;28;20418;-53
2021/05/12 07:20:15;;;;;;;17.33;10.03;;;;;;;;;;5054009;28;20456;-52
2021/05/12 07:22:41;;;;;;;14.43;9.80;;;;;;;;;;5053772;28;20424;-53
2021/05/12 07:25:07;;;;;;;23.03;11.83;;;;;;;;;;5053916;28;20934;-54
2021/05/12 07:27:33;;;;;;;20.63;11.87;;;;;;;;;;5053885;28;20507;-53
2021/05/12 07:29:59;;;;;;;21.20;12.17;;;;;;;;;;5053797;28;20409;-53
2021/05/12 07:32:25;;;;;;;11.77;10.23;;;;;;;;;;5053562;28;20405;-52
2021/05/12 07:34:52;;;;;;;18.77;10.83;;;;;;;;;;5053780;28;20484;-53
2021/05/12 07:37:19;;;;;;;19.23;10.20;;;;;;;;;;5053866;28;20417;-53
2021/05/12 07:39:45;;;;;;;10.50;9.17;;;;;;;;;;5052371;28;20408;-52
2021/05/12 07:42:13;;;;;;;12.00;9.60;;;;;;;;;;5053537;28;20459;-52
2021/05/12 07:44:39;;;;;;;13.50;10.50;;;;;;;;;;5052332;28;20376;-53
2021/05/12 07:47:05;;;;;;;15.90;9.93;;;;;;;;;;5053339;28;20901;-53
2021/05/12 07:49:31;;;;;;;11.27;9.23;;;;;;;;;;5053521;28;20489;-53
2021/05/12 07:51:57;;;;;;;12.23;9.30;;;;;;;;;;5053478;28;20380;-53
2021/05/12 07:54:23;;;;;;;11.37;8.60;;;;;;;;;;5053586;28;20407;-53
2021/05/12 07:56:49;;;;;;;14.57;9.57;;;;;;;;;;5053400;28;20428;-53
2021/05/12 07:59:18;;;;;;;17.97;9.40;;;;;;;;;;5053635;28;20807;-55
2021/05/12 08:01:46;;;;;;;12.80;8.07;;;;;;;;;;5052955;28;20383;-53
2021/05/12 08:04:12;;;;;;;16.33;9.03;;;;;;;;;;5052203;28;20468;-52
2021/05/12 08:06:38;;;;;;;11.90;8.80;;;;;;;;;;5053228;28;20421;-52
2021/05/12 08:09:06;;;;;;;11.83;9.30;;;;;;;;;;5053158;28;20886;-52
2021/05/12 08:11:32;;;;;;;11.07;8.90;;;;;;;;;;5052792;28;20384;-52
2021/05/12 08:13:58;;;;;;;13.73;10.00;;;;;;;;;;5053063;28;20433;-52
2021/05/12 08:16:24;;;;;;;16.90;10.63;;;;;;;;;;5052819;28;20446;-52
2021/05/12 08:18:50;;;;;;;16.73;10.63;;;;;;;;;;5053119;28;20455;-52
2021/05/12 08:21:16;;;;;;;15.67;10.47;;;;;;;;;;5052864;28;20384;-53
2021/05/12 08:23:42;;;;;;;13.57;9.33;;;;;;;;;;5052830;28;20435;-53
2021/05/12 08:26:10;;;;;;;13.27;10.57;;;;;;;;;;5052674;28;20398;-53
2021/05/12 08:28:38;;;;;;;11.77;10.10;;;;;;;;;;5052784;28;20432;-53
2021/05/12 08:31:04;;;;;;;15.37;12.40;;;;;;;;;;5052884;28;20437;-53
2021/05/12 08:33:30;;;;;;;14.37;10.87;;;;;;;;;;5052710;28;20940;-54
2021/05/12 08:35:57;;;;;;;16.30;9.80;;;;;;;;;;5052527;28;20763;-53
2021/05/12 08:38:25;;;;;;;15.43;13.13;;;;;;;;;;5052668;28;20401;-52
2021/05/12 08:40:53;;;;;;;14.23;11.97;;;;;;;;;;5052394;28;20923;-53
2021/05/12 08:43:19;;;;;;;14.10;12.67;;;;;;;;;;5052211;28;20499;-53
2021/05/12 08:45:46;;;;;;;14.13;12.50;;;;;;;;;;5052423;28;20447;-52
2021/05/12 08:48:16;;;;;;;11.47;10.23;;;;;;;;;;5052214;28;20441;-53
2021/05/12 08:50:43;;;;;;;16.40;12.63;;;;;;;;;;5052772;28;20433;-53
2021/05/12 08:53:09;;;;;;;13.77;12.47;;;;;;;;;;5051597;28;20402;-54
2021/05/12 08:55:36;;;;;;;14.20;12.70;;;;;;;;;;5052224;28;20394;-53
2021/05/12 08:58:02;;;;;;;15.40;11.87;;;;;;;;;;5051557;28;20894;-53
2021/05/12 09:00:29;;;;;;;12.03;10.83;;;;;;;;;;5051146;28;20409;-53
2021/05/12 09:02:55;;;;;;;12.13;10.93;;;;;;;;;;5051709;28;20457;-53
2021/05/12 09:05:21;;;;;;;13.00;9.37;;;;;;;;;;5052380;28;20402;-53
2021/05/12 09:07:48;;;;;;;10.27;8.67;;;;;;;;;;5067393;28;20487;-52
2021/05/12 09:10:15;;;;;;;15.87;10.90;;;;;;;;;;5052110;28;20401;-53
2021/05/12 09:12:47;;;;;;;14.50;10.10;;;;;;;;;;5051720;28;20409;-53
2021/05/12 09:15:17;;;;;;;12.13;10.20;;;;;;;;;;5050974;28;20429;-53
2021/05/12 09:17:44;;;;;;;11.53;10.53;;;;;;;;;;5050678;28;20490;-53
2021/05/12 09:20:23;;;;;;;12.20;10.70;;;;;;;;;;5051962;28;20479;-52
2021/05/12 09:22:50;;;;;;;12.00;9.90;;;;;;;;;;5051185;28;20487;-53
2021/05/12 09:25:17;;;;;;;11.63;10.50;;;;;;;;;;5051681;28;20621;-53
2021/05/12 09:27:49;;;;;;;10.33;9.27;;;;;;;;;;5051682;28;20424;-52
2021/05/12 09:30:21;;;;;;;10.90;9.83;;;;;;;;;;5051451;28;20406;-53
2021/05/12 09:32:48;;;;;;;16.13;9.97;;;;;;;;;;5051533;28;20406;-53
2021/05/12 09:35:14;;;;;;;17.20;11.43;;;;;;;;;;5051248;28;20411;-53
2021/05/12 09:37:42;;;;;;;15.57;12.77;;;;;;;;;;5051437;28;20929;-52
2021/05/12 09:40:08;;;;;;;17.00;11.20;;;;;;;;;;5051430;28;20379;-52
2021/05/12 09:42:38;;;;;;;13.93;12.60;;;;;;;;;;5051427;28;20495;-52
2021/05/12 09:45:20;;;;;;;14.07;12.47;;;;;;;;;;5051509;28;20421;-52
2021/05/12 09:47:47;;;;;;;15.77;14.13;;;;;;;;;;5050041;28;20797;-52
2021/05/12 09:50:17;;;;;;;15.93;12.90;;;;;;;;;;5051457;28;20379;-53
2021/05/12 09:52:43;;;;;;;16.20;11.30;;;;;;;;;;5050877;28;20486;-52
2021/05/12 09:55:10;;;;;;;14.17;12.73;;;;;;;;;;5051204;28;20753;-54
2021/05/12 09:57:36;;;;;;;12.97;11.77;;;;;;;;;;5050928;28;20535;-53
2021/05/12 10:00:04;;;;;;;11.97;10.77;;;;;;;;;;5051212;28;20380;-53
2021/05/12 10:02:44;;;;;;;12.73;11.57;;;;;;;;;;5050491;28;20481;-53
2021/05/12 10:05:10;;;;;;;13.00;10.80;;;;;;;;;;5051373;28;20372;-53
2021/05/12 10:07:36;;;;;;;10.70;9.60;;;;;;;;;;5050725;28;20425;-53
2021/05/12 10:10:03;;;;;;;12.20;11.10;;;;;;;;;;5050865;28;20408;-52
2021/05/12 10:12:29;;;;;;;9.77;8.87;;;;;;;;;;5050545;28;20413;-52
2021/05/12 10:14:56;;;;;;;11.40;9.70;;;;;;;;;;5050863;28;20401;-53
2021/05/12 10:17:23;;;;;;;11.27;10.03;;;;;;;;;;5051001;28;20425;-53
2021/05/12 10:19:50;;;;;;;11.60;10.50;;;;;;;;;;5050995;28;20455;-53
2021/05/12 10:22:16;;;;;;;10.00;9.10;;;;;;;;;;5050555;28;20488;-53
2021/05/12 10:24:44;;;;;;;10.80;9.77;;;;;;;;;;5050011;28;20398;-53
2021/05/12 10:27:14;;;;;;;9.87;9.07;;;;;;;;;;5050214;28;20421;-53
2021/05/12 10:29:48;;;;;;;12.30;9.60;;;;;;;;;;5050430;28;20402;-52
2021/05/12 10:32:15;;;;;;;13.60;9.90;;;;;;;;;;5050498;28;20459;-54
2021/05/12 10:34:41;;;;;;;11.23;9.43;;;;;;;;;;5050473;28;20376;-53
2021/05/12 10:37:21;;;;;;;11.40;9.73;;;;;;;;;;5050596;28;20431;-54
2021/05/12 10:39:52;;;;;;;14.80;11.83;;;;;;;;;;5050352;28;20863;-54
2021/05/12 10:42:38;;;;;;;16.80;13.07;;;;;;;;;;5050168;28;20411;-53
2021/05/12 10:45:04;;;;;;;13.70;12.30;;;;;;;;;;5049630;28;20409;-52
2021/05/12 10:47:37;;;;;;;17.07;13.00;;;;;;;;;;5050297;28;20437;-54
2021/05/12 10:50:04;;;;;;;14.50;12.30;;;;;;;;;;5050347;28;20390;-52
2021/05/12 10:52:30;;;;;;;13.87;12.50;;;;;;;;;;5049988;28;20777;-53
2021/05/12 10:54:56;;;;;;;13.23;11.27;;;;;;;;;;5050362;28;20434;-53
2021/05/12 10:57:37;;;;;;;10.70;9.70;;;;;;;;;;5050392;28;20913;-53
2021/05/12 11:00:04;;;;;;;11.30;10.27;;;;;;;;;;5050171;28;20901;-52
2021/05/12 11:03:03;;;;;;;12.93;11.70;;;;;;;;;;5049916;28;20536;-52
2021/05/12 11:05:43;;;;;;;11.73;10.50;;;;;;;;;;5048690;28;20417;-52
2021/05/12 11:08:12;;;;;;;11.03;8.30;;;;;;;;;;5050226;28;20455;-53
2021/05/12 11:10:50;;;;;;;9.60;7.70;;;;;;;;;;5050365;28;20430;-53
2021/05/12 11:13:23;;;;;;;8.30;7.50;;;;;;;;;;5050503;28;20406;-54
2021/05/12 11:15:50;;;;;;;15.50;8.87;;;;;;;;;;5050068;28;20831;-54
2021/05/12 11:18:36;;;;;;;10.73;7.80;;;;;;;;;;5065568;28;20803;-55
2021/05/12 11:21:22;;;;;;;8.13;6.93;;;;;;;;;;5049941;28;20488;-54
2021/05/12 11:24:07;;;;;;;10.40;9.27;;;;;;;;;;5049930;28;20539;-54
2021/05/12 11:32:05;;;;;;;11.13;9.03;;;;;;;;;;5049971;28;20401;-54
2021/05/12 11:34:31;;;;;;;11.80;9.27;;;;;;;;;;5050011;28;20397;-54
2021/05/12 11:37:08;;;;;;;12.20;8.73;;;;;;;;;;5049839;28;20424;-54
2021/05/12 11:39:34;;;;;;;8.23;7.60;;;;;;;;;;5052965;28;20412;-55
2021/05/12 11:42:00;;;;;;;7.57;6.83;;;;;;;;;;5053539;28;20397;-54
2021/05/12 11:44:26;;;;;;;8.90;8.10;;;;;;;;;;5053532;28;20452;-55
2021/05/12 11:46:52;;;;;;;9.37;7.80;;;;;;;;;;5053514;28;20415;-55
2021/05/12 11:49:20;;;;;;;16.00;7.17;;;;;;;;;;5053469;28;20776;-54
2021/05/12 11:51:51;;;;;;;8.50;7.70;;;;;;;;;;5053369;28;20408;-54
2021/05/12 11:54:17;;;;;;;10.20;8.20;;;;;;;;;;5053405;28;20405;-54
2021/05/12 11:56:45;;;;;;;11.27;7.73;;;;;;;;;;5053415;28;20823;-54
2021/05/12 11:59:13;;;;;;;10.00;8.17;;;;;;;;;;5053113;28;20388;-55
2021/05/12 12:01:43;;;;;;;10.33;7.60;;;;;;;;;;5053052;28;20405;-54
2021/05/12 12:04:21;;;;;;;13.27;8.03;;;;;;;;;;5053078;28;20452;-54
2021/05/12 12:06:48;;;;;;;10.80;8.20;;;;;;;;;;5053387;28;20474;-54
2021/05/12 12:09:15;;;;;;;7.50;6.80;;;;;;;;;;5053180;28;20405;-55
2021/05/12 12:11:41;;;;;;;8.13;7.30;;;;;;;;;;5052714;28;20404;-54
2021/05/12 12:14:07;;;;;;;9.23;8.43;;;;;;;;;;5052837;28;20397;-55
2021/05/12 12:16:35;;;;;;;9.23;7.50;;;;;;;;;;5053189;28;20417;-54
2021/05/12 12:19:30;;;;;;;7.80;6.87;;;;;;;;;;5052909;28;20459;-55
2021/05/12 12:21:56;;;;;;;10.60;7.90;;;;;;;;;;5048120;28;20421;-54
2021/05/12 12:24:24;;;;;;;8.27;7.53;;;;;;;;;;5052470;28;20491;-54
2021/05/12 12:26:55;;;;;;;9.73;8.23;;;;;;;;;;5052962;28;20464;-54
2021/05/12 12:29:22;;;;;;;11.77;9.83;;;;;;;;;;5052951;28;20726;-54
2021/05/12 12:31:50;;;;;;;19.77;13.87;;;;;;;;;;5052855;28;20404;-55
2021/05/12 12:34:22;;;;;;;18.53;16.67;;;;;;;;;;5052637;28;20410;-54
2021/05/12 12:36:53;;;;;;;22.83;19.50;;;;;;;;;;5052497;28;20429;-55
2021/05/12 12:39:20;;;;;;;19.67;17.80;;;;;;;;;;5052684;28;20408;-54
2021/05/12 12:41:51;;;;;;;20.77;18.67;;;;;;;;;;5052374;28;20453;-54
2021/05/12 12:44:17;;;;;;;21.77;18.93;;;;;;;;;;5052395;28;20466;-54
2021/05/12 12:46:43;;;;;;;19.07;17.13;;;;;;;;;;5052245;28;20407;-54
2021/05/12 12:49:09;;;;;;;21.47;19.23;;;;;;;;;;5042446;28;20456;-55
2021/05/12 12:51:41;;;;;;;21.33;18.00;;;;;;;;;;5031946;28;20460;-55
2021/05/12 12:54:07;;;;;;;22.63;18.83;;;;;;;;;;5032373;28;20676;-55
2021/05/12 12:56:34;;;;;;;23.43;18.10;;;;;;;;;;5032012;28;20407;-54
2021/05/12 12:59:05;;;;;;;18.50;16.80;;;;;;;;;;5032230;28;20413;-54
2021/05/12 13:01:32;;;;;;;21.03;18.03;;;;;;;;;;5031684;28;20437;-55
2021/05/12 13:04:13;;;;;;;21.00;17.67;;;;;;;;;;5032238;28;20425;-55
2021/05/12 13:06:39;;;;;;;16.43;14.93;;;;;;;;;;5031993;28;20980;-54
2021/05/12 13:09:23;;;;;;;20.87;17.50;;;;;;;;;;5032094;28;20406;-54
2021/05/12 13:11:59;;;;;;;18.40;16.63;;;;;;;;;;5031736;28;20447;-55
2021/05/12 13:14:25;;;;;;;16.37;14.70;;;;;;;;;;5032003;28;20463;-55
2021/05/12 13:17:03;;;;;;;14.70;13.53;;;;;;;;;;5031971;28;20917;-55
2021/05/12 13:19:29;;;;;;;15.23;13.80;;;;;;;;;;5030726;28;20452;-54
2021/05/12 13:21:58;;;;;;;15.53;14.20;;;;;;;;;;5031590;28;20416;-55
2021/05/12 13:24:26;;;;;;;15.63;14.33;;;;;;;;;;5031420;28;20674;-55
2021/05/12 13:26:56;;;;;;;18.30;16.40;;;;;;;;;;5031656;28;20901;-55
2021/05/12 13:29:23;;;;;;;18.30;14.37;;;;;;;;;;5031549;28;20393;-55
2021/05/12 13:31:50;;;;;;;16.60;15.03;;;;;;;;;;5031479;28;20485;-55
2021/05/12 13:34:18;;;;;;;15.20;13.87;;;;;;;;;;5031448;28;20414;-55
2021/05/12 13:36:47;;;;;;;17.43;15.73;;;;;;;;;;5031633;28;20423;-55
2021/05/12 13:39:13;;;;;;;16.33;14.90;;;;;;;;;;5031395;28;20887;-54
2021/05/12 13:41:40;;;;;;;18.53;16.83;;;;;;;;;;5031652;28;20402;-55
2021/05/12 13:44:06;;;;;;;17.77;16.13;;;;;;;;;;5031238;28;20812;-55
2021/05/12 13:46:32;;;;;;;16.67;15.20;;;;;;;;;;5031428;28;20427;-54
2021/05/12 13:48:58;;;;;;;17.40;15.90;;;;;;;;;;5031566;28;20381;-54
2021/05/12 13:51:28;;;;;;;15.23;14.00;;;;;;;;;;5031136;28;20401;-54
2021/05/12 13:54:01;;;;;;;16.13;14.63;;;;;;;;;;5031192;28;20416;-54
2021/05/12 13:56:35;;;;;;;17.60;13.40;;;;;;;;;;5031178;28;20428;-54
2021/05/12 13:59:22;;;;;;;15.10;13.80;;;;;;;;;;5031416;28;20411;-54
2021/05/12 14:04:27;;;;;;;14.93;13.20;;;;;;;;;;5031036;28;20442;-54
2021/05/12 14:06:53;;;;;;;16.67;14.90;;;;;;;;;;5030946;28;20400;-54
2021/05/12 14:09:23;;;;;;;16.70;15.20;;;;;;;;;;5031069;28;20439;-54
2021/05/12 14:11:57;;;;;;;16.43;14.73;;;;;;;;;;5030710;28;20780;-54
2021/05/12 14:14:46;;;;;;;17.30;15.70;;;;;;;;;;5030851;28;20460;-54
2021/05/12 14:19:47;;;;;;;18.67;16.30;;;;;;;;;;5031047;28;20387;-54
2021/05/12 14:22:13;;;;;;;19.03;17.43;;;;;;;;;;5030413;28;20381;-55
2021/05/12 14:24:39;;;;;;;17.87;16.03;;;;;;;;;;5030703;28;20824;-55
2021/05/12 14:27:05;;;;;;;15.90;14.37;;;;;;;;;;5030379;28;20393;-55
2021/05/12 14:29:36;;;;;;;14.17;12.90;;;;;;;;;;5030774;28;20421;-54
2021/05/12 14:32:03;;;;;;;13.33;12.03;;;;;;;;;;5030433;28;20897;-54
2021/05/12 14:34:29;;;;;;;13.00;11.90;;;;;;;;;;5030618;28;20447;-54